Time;durP1;ratioP1;P1;durP2;ratioP2;P2;SDS_P1;SDS_P2;PMS_P1;PMS_P2;Temp;Humidity;BMP_temperature;BMP_pressure;BME280_temperature;BME280_humidity;BME280_pressure;Samples;Min_cycle;Max_cycle;Signal;HPM_P1;HPM_P2
2022/10/11 00:00:00;;;;;;;11.22;6.67;;;;;;;;;;1687753;85;22339;-69
2022/10/11 00:02:26;;;;;;;12.45;6.83;;;;;;;;;;1685038;85;21053;-69
2022/10/11 00:04:52;;;;;;;9.90;6.30;;;;;;;;;;1688049;85;21108;-69
2022/10/11 00:07:18;;;;;;;13.15;6.45;;;;;;;;;;1669157;85;21623;-69
2022/10/11 00:09:44;;;;;;;14.38;7.17;;;;;;;;;;1676870;85;21112;-69
2022/10/11 00:12:11;;;;;;;10.75;6.50;;;;;;;;;;1671358;85;21120;-69
2022/10/11 00:14:37;;;;;;;11.70;6.28;;;;;;;;;;1679102;85;21034;-69
2022/10/11 00:17:06;;;;;;;11.35;6.33;;;;;;;;;;1677197;85;21621;-69
2022/10/11 00:19:32;;;;;;;12.85;7.15;;;;;;;;;;1679604;85;22281;-69
2022/10/11 00:21:59;;;;;;;11.57;6.58;;;;;;;;;;1675927;85;21049;-69
2022/10/11 00:24:25;;;;;;;10.30;5.92;;;;;;;;;;1670638;84;21092;-69
2022/10/11 00:26:52;;;;;;;9.15;6.10;;;;;;;;;;1735613;82;21123;-68
2022/10/11 00:29:18;;;;;;;10.32;6.67;;;;;;;;;;1738842;82;21077;-70
2022/10/11 00:31:44;;;;;;;11.10;6.40;;;;;;;;;;1720399;82;21624;-69
2022/10/11 00:34:11;;;;;;;10.90;6.47;;;;;;;;;;1724706;83;21038;-69
2022/10/11 00:36:37;;;;;;;8.60;5.53;;;;;;;;;;1721120;82;21098;-70
2022/10/11 00:39:03;;;;;;;10.60;6.20;;;;;;;;;;1679873;84;21100;-71
2022/10/11 00:41:30;;;;;;;10.50;5.87;;;;;;;;;;1719218;83;21597;-70
2022/10/11 00:44:12;;;;;;;11.73;6.25;;;;;;;;;;1709794;83;22050;-70
2022/10/11 00:46:39;;;;;;;11.33;5.75;;;;;;;;;;1703798;83;20987;-69
2022/10/11 00:49:24;;;;;;;10.13;5.67;;;;;;;;;;1720422;83;20964;-70
2022/10/11 00:51:57;;;;;;;9.80;6.22;;;;;;;;;;1691003;84;21099;-69
2022/10/11 00:54:24;;;;;;;9.93;6.40;;;;;;;;;;1722004;83;21566;-69
2022/10/11 00:56:52;;;;;;;10.20;6.20;;;;;;;;;;1682871;84;21066;-69
2022/10/11 00:59:20;;;;;;;9.18;5.80;;;;;;;;;;1695811;84;21542;-68
2022/10/11 01:01:47;;;;;;;11.83;5.35;;;;;;;;;;1702297;83;21094;-69
2022/10/11 01:04:13;;;;;;;10.40;5.80;;;;;;;;;;1713332;83;21073;-69
2022/10/11 01:06:40;;;;;;;10.93;6.45;;;;;;;;;;1710979;83;21011;-69
2022/10/11 01:09:06;;;;;;;12.88;6.58;;;;;;;;;;1696456;83;21101;-70
2022/10/11 01:11:33;;;;;;;14.50;7.22;;;;;;;;;;1697992;83;21538;-69
2022/10/11 01:14:11;;;;;;;15.48;7.28;;;;;;;;;;1683127;84;21118;-69
2022/10/11 01:16:44;;;;;;;11.80;6.45;;;;;;;;;;1700356;83;21015;-69
2022/10/11 01:19:29;;;;;;;13.38;7.03;;;;;;;;;;1695457;84;21182;-69
2022/10/11 01:22:14;;;;;;;12.55;7.10;;;;;;;;;;1695519;84;21071;-69
2022/10/11 01:24:45;;;;;;;12.40;7.20;;;;;;;;;;1701447;83;21038;-69
2022/10/11 01:27:14;;;;;;;12.25;6.80;;;;;;;;;;1715893;83;21062;-69
2022/10/11 01:29:51;;;;;;;16.37;6.80;;;;;;;;;;1724291;83;21610;-69
2022/10/11 01:32:18;;;;;;;13.13;7.03;;;;;;;;;;1697634;83;21519;-69
2022/10/11 01:34:55;;;;;;;15.23;6.58;;;;;;;;;;1689601;84;21031;-69
2022/10/11 01:37:23;;;;;;;11.75;7.00;;;;;;;;;;1682087;84;21027;-69
2022/10/11 01:39:51;;;;;;;13.35;6.62;;;;;;;;;;1722665;83;21139;-68
2022/10/11 01:42:17;;;;;;;10.93;6.87;;;;;;;;;;1723774;83;21514;-69
2022/10/11 01:44:45;;;;;;;12.20;6.65;;;;;;;;;;1715563;83;21102;-69
2022/10/11 01:47:12;;;;;;;13.50;7.08;;;;;;;;;;1698522;84;21078;-70
2022/10/11 01:49:40;;;;;;;9.95;6.53;;;;;;;;;;1696115;84;21019;-70
2022/10/11 01:52:07;;;;;;;12.43;6.92;;;;;;;;;;1698734;83;21009;-70
2022/10/11 01:54:50;;;;;;;13.28;7.72;;;;;;;;;;1698556;83;21036;-70
2022/10/11 01:57:24;;;;;;;12.78;7.47;;;;;;;;;;1696619;83;21593;-70
2022/10/11 01:59:52;;;;;;;12.25;7.28;;;;;;;;;;1670548;84;21087;-71
2022/10/11 02:05:11;;;;;;;12.20;7.03;;;;;;;;;;1714034;79;77138;-73
2022/10/11 02:07:45;;;;;;;13.30;7.12;;;;;;;;;;1724876;82;21072;-73
2022/10/11 02:10:15;;;;;;;10.70;6.72;;;;;;;;;;1725484;81;21123;-73
2022/10/11 02:12:44;;;;;;;14.23;7.28;;;;;;;;;;1725656;81;21071;-73
2022/10/11 02:15:10;;;;;;;14.38;7.25;;;;;;;;;;1725440;81;21056;-73
2022/10/11 02:17:39;;;;;;;13.50;7.83;;;;;;;;;;1724816;83;21995;-74
2022/10/11 02:20:06;;;;;;;15.50;7.97;;;;;;;;;;1724600;81;21712;-74
2022/10/11 02:22:33;;;;;;;14.35;7.58;;;;;;;;;;1708715;83;21491;-73
2022/10/11 02:24:59;;;;;;;11.63;7.62;;;;;;;;;;1707264;83;21000;-74
2022/10/11 02:27:26;;;;;;;14.90;7.17;;;;;;;;;;1724353;83;21021;-74
2022/10/11 02:29:53;;;;;;;11.93;6.80;;;;;;;;;;1723786;83;21579;-74
2022/10/11 02:32:19;;;;;;;12.18;6.37;;;;;;;;;;1724009;83;21100;-75
2022/10/11 02:34:48;;;;;;;12.20;6.62;;;;;;;;;;1719997;83;21108;-74
2022/10/11 02:37:15;;;;;;;12.28;6.60;;;;;;;;;;1725573;81;21507;-74
2022/10/11 02:39:47;;;;;;;10.60;6.47;;;;;;;;;;1725714;81;21586;-74
2022/10/11 02:42:14;;;;;;;11.65;5.97;;;;;;;;;;1725619;81;20992;-74
2022/10/11 02:44:42;;;;;;;10.75;5.67;;;;;;;;;;1722238;83;21092;-74
2022/10/11 02:47:08;;;;;;;12.75;6.20;;;;;;;;;;1723392;83;21052;-73
2022/10/11 02:49:34;;;;;;;11.90;5.72;;;;;;;;;;1713399;83;21027;-73
2022/10/11 02:52:02;;;;;;;10.78;6.62;;;;;;;;;;1696774;84;21028;-73
2022/10/11 02:54:28;;;;;;;10.78;6.22;;;;;;;;;;1698537;83;21051;-73
2022/10/11 02:56:54;;;;;;;10.88;6.08;;;;;;;;;;1722657;83;21032;-73
2022/10/11 02:59:21;;;;;;;11.40;6.35;;;;;;;;;;1725625;81;21055;-73
2022/10/11 03:01:47;;;;;;;9.63;6.72;;;;;;;;;;1722570;83;21036;-73
2022/10/11 03:04:13;;;;;;;11.95;5.90;;;;;;;;;;1707079;83;21044;-73
2022/10/11 03:06:41;;;;;;;12.15;5.50;;;;;;;;;;1699295;83;21556;-73
2022/10/11 03:09:07;;;;;;;11.12;6.47;;;;;;;;;;1698214;84;21023;-73
2022/10/11 03:11:33;;;;;;;9.88;5.72;;;;;;;;;;1699852;83;21025;-74
2022/10/11 03:14:00;;;;;;;10.43;5.62;;;;;;;;;;1699733;84;21043;-73
2022/10/11 03:16:27;;;;;;;14.70;6.42;;;;;;;;;;1697209;83;21035;-74
2022/10/11 03:18:53;;;;;;;12.33;6.00;;;;;;;;;;1695628;84;21048;-73
2022/10/11 03:21:20;;;;;;;10.72;6.22;;;;;;;;;;1696605;83;22097;-73
2022/10/11 03:23:46;;;;;;;14.83;6.10;;;;;;;;;;1695303;83;21057;-73
2022/10/11 03:26:13;;;;;;;12.13;6.05;;;;;;;;;;1697018;84;21068;-73
2022/10/11 03:28:40;;;;;;;11.53;6.00;;;;;;;;;;1698717;84;21533;-73
2022/10/11 03:31:06;;;;;;;15.25;6.33;;;;;;;;;;1696485;84;20981;-74
2022/10/11 03:33:32;;;;;;;11.60;6.12;;;;;;;;;;1699400;84;21043;-73
2022/10/11 03:35:58;;;;;;;11.15;5.15;;;;;;;;;;1695760;83;21068;-73
2022/10/11 03:38:25;;;;;;;11.88;5.80;;;;;;;;;;1698629;84;21091;-73
2022/10/11 03:40:51;;;;;;;9.53;5.67;;;;;;;;;;1698454;83;21055;-73
2022/10/11 03:43:17;;;;;;;11.65;5.90;;;;;;;;;;1697018;83;21542;-73
2022/10/11 03:45:43;;;;;;;10.48;5.53;;;;;;;;;;1696125;84;20992;-74
2022/10/11 03:48:09;;;;;;;10.70;5.80;;;;;;;;;;1698001;83;21121;-73
2022/10/11 03:50:36;;;;;;;12.05;5.53;;;;;;;;;;1694845;83;21037;-73
2022/10/11 03:53:03;;;;;;;13.22;6.33;;;;;;;;;;1697162;84;21083;-74
2022/10/11 03:55:29;;;;;;;13.88;7.28;;;;;;;;;;1698985;84;21020;-74
2022/10/11 03:57:56;;;;;;;12.20;7.05;;;;;;;;;;1698971;84;22095;-74
2022/10/11 04:00:22;;;;;;;12.40;6.58;;;;;;;;;;1699571;84;21112;-74
2022/10/11 04:02:48;;;;;;;10.82;6.35;;;;;;;;;;1698916;83;21067;-74
2022/10/11 04:05:14;;;;;;;12.23;5.60;;;;;;;;;;1695906;83;21040;-73
2022/10/11 04:07:41;;;;;;;10.70;5.28;;;;;;;;;;1695090;84;21051;-74
2022/10/11 04:10:07;;;;;;;11.95;6.08;;;;;;;;;;1678516;84;21088;-73
2022/10/11 04:12:35;;;;;;;18.15;6.45;;;;;;;;;;1694014;84;21066;-74
2022/10/11 04:15:02;;;;;;;13.58;5.85;;;;;;;;;;1692784;85;21082;-73
2022/10/11 04:17:29;;;;;;;12.18;5.85;;;;;;;;;;1693575;83;21043;-73
2022/10/11 04:19:55;;;;;;;11.03;5.28;;;;;;;;;;1694384;84;21092;-73
2022/10/11 04:22:21;;;;;;;8.50;5.35;;;;;;;;;;1694844;84;21023;-73
2022/10/11 04:24:47;;;;;;;9.93;5.10;;;;;;;;;;1694451;83;20962;-74
2022/10/11 04:27:13;;;;;;;20.27;5.80;;;;;;;;;;1695908;84;21169;-73
2022/10/11 04:29:39;;;;;;;12.70;5.25;;;;;;;;;;1694368;83;21539;-73
2022/10/11 04:32:06;;;;;;;13.05;6.33;;;;;;;;;;1696482;84;21087;-73
2022/10/11 04:34:32;;;;;;;10.40;5.50;;;;;;;;;;1684138;84;21055;-73
2022/10/11 04:36:58;;;;;;;9.30;5.20;;;;;;;;;;1689179;84;21515;-73
2022/10/11 04:39:24;;;;;;;8.85;5.47;;;;;;;;;;1694656;83;21063;-73
2022/10/11 04:41:51;;;;;;;8.98;5.20;;;;;;;;;;1694976;83;21590;-73
2022/10/11 04:44:17;;;;;;;8.30;5.35;;;;;;;;;;1695463;83;21051;-74
2022/10/11 04:46:43;;;;;;;9.40;5.70;;;;;;;;;;1695375;84;21040;-74
2022/10/11 04:49:09;;;;;;;9.85;5.97;;;;;;;;;;1695327;84;21089;-73
2022/10/11 04:51:36;;;;;;;10.35;6.17;;;;;;;;;;1693503;84;21000;-72
2022/10/11 04:54:03;;;;;;;7.60;4.67;;;;;;;;;;1693587;83;21146;-72
2022/10/11 04:56:29;;;;;;;9.38;5.42;;;;;;;;;;1695358;84;21069;-74
2022/10/11 04:58:55;;;;;;;7.83;4.78;;;;;;;;;;1695969;83;21070;-73
2022/10/11 05:01:23;;;;;;;8.53;5.00;;;;;;;;;;1696492;84;21035;-73
2022/10/11 05:03:49;;;;;;;9.10;4.92;;;;;;;;;;1695838;83;21073;-71
2022/10/11 05:06:15;;;;;;;9.90;5.37;;;;;;;;;;1674583;84;21085;-73
2022/10/11 05:08:42;;;;;;;9.03;5.28;;;;;;;;;;1674896;84;21068;-73
2022/10/11 05:11:10;;;;;;;11.43;5.35;;;;;;;;;;1682856;84;21634;-73
2022/10/11 05:13:37;;;;;;;11.43;5.30;;;;;;;;;;1673493;84;21073;-73
2022/10/11 05:16:04;;;;;;;9.28;5.17;;;;;;;;;;1670984;84;21015;-73
2022/10/11 05:18:30;;;;;;;10.20;5.42;;;;;;;;;;1674304;84;21073;-73
2022/10/11 05:20:58;;;;;;;31.75;16.90;;;;;;;;;;1673515;84;21058;-73
2022/10/11 05:23:25;;;;;;;20.90;11.08;;;;;;;;;;1646635;84;21028;-72
2022/10/11 05:25:52;;;;;;;12.43;6.50;;;;;;;;;;1671971;84;21090;-74
2022/10/11 05:28:20;;;;;;;10.50;5.15;;;;;;;;;;1667048;84;21080;-72
2022/10/11 05:30:47;;;;;;;10.10;5.90;;;;;;;;;;1674789;84;21507;-73
2022/10/11 05:33:13;;;;;;;9.30;4.97;;;;;;;;;;1675193;84;21565;-73
2022/10/11 05:35:39;;;;;;;11.55;5.22;;;;;;;;;;1676563;84;21102;-74
2022/10/11 05:38:05;;;;;;;8.20;4.30;;;;;;;;;;1674628;84;20998;-73
2022/10/11 05:40:32;;;;;;;9.08;4.05;;;;;;;;;;1678007;84;21001;-75
2022/10/11 05:42:59;;;;;;;7.75;4.30;;;;;;;;;;1678170;84;21056;-75
2022/10/11 05:45:24;;;;;;;6.25;4.12;;;;;;;;;;1649598;85;21091;-75
2022/10/11 05:47:51;;;;;;;8.13;4.25;;;;;;;;;;1652173;85;21637;-74
2022/10/11 05:50:17;;;;;;;8.20;4.03;;;;;;;;;;1645545;87;21096;-75
2022/10/11 05:52:43;;;;;;;6.47;3.98;;;;;;;;;;1662009;85;21103;-74
2022/10/11 05:55:09;;;;;;;6.65;4.12;;;;;;;;;;1655253;85;21170;-76
2022/10/11 05:57:36;;;;;;;5.30;3.47;;;;;;;;;;1669024;84;21054;-75
2022/10/11 06:00:03;;;;;;;6.00;3.45;;;;;;;;;;1668820;84;21121;-75
2022/10/11 06:02:32;;;;;;;7.45;4.05;;;;;;;;;;1666100;84;21118;-75
2022/10/11 06:04:58;;;;;;;8.05;3.85;;;;;;;;;;1668704;84;21020;-74
2022/10/11 06:07:25;;;;;;;10.32;3.95;;;;;;;;;;1675607;84;21051;-75
2022/10/11 06:09:51;;;;;;;5.67;3.72;;;;;;;;;;1676755;84;21540;-77
2022/10/11 06:12:17;;;;;;;4.78;3.70;;;;;;;;;;1674676;84;21037;-75
2022/10/11 06:14:44;;;;;;;5.83;3.62;;;;;;;;;;1677627;84;21049;-75
2022/10/11 06:17:10;;;;;;;5.97;3.20;;;;;;;;;;1666059;84;22412;-74
2022/10/11 06:19:37;;;;;;;4.97;3.20;;;;;;;;;;1640976;85;21085;-76
2022/10/11 06:22:04;;;;;;;6.42;3.27;;;;;;;;;;1641010;87;21109;-74
2022/10/11 06:24:30;;;;;;;8.20;3.65;;;;;;;;;;1647138;87;21119;-75
2022/10/11 06:26:56;;;;;;;5.30;3.40;;;;;;;;;;1682310;84;21091;-76
2022/10/11 06:29:22;;;;;;;6.20;2.90;;;;;;;;;;1679321;84;21052;-74
2022/10/11 06:31:48;;;;;;;6.70;2.90;;;;;;;;;;1677022;84;21089;-76
2022/10/11 06:34:15;;;;;;;4.75;2.87;;;;;;;;;;1675459;84;21079;-77
2022/10/11 06:36:41;;;;;;;3.87;2.70;;;;;;;;;;1681542;84;21033;-76
2022/10/11 06:39:07;;;;;;;4.30;2.80;;;;;;;;;;1674961;84;21055;-75
2022/10/11 06:41:33;;;;;;;4.70;2.85;;;;;;;;;;1670468;84;21104;-74
2022/10/11 06:43:59;;;;;;;4.37;2.98;;;;;;;;;;1677972;84;22023;-75
2022/10/11 06:46:26;;;;;;;4.92;2.83;;;;;;;;;;1678503;84;21488;-76
2022/10/11 06:48:52;;;;;;;4.62;3.10;;;;;;;;;;1677655;84;21012;-73
2022/10/11 06:51:24;;;;;;;5.47;3.15;;;;;;;;;;1668203;84;21147;-75
2022/10/11 06:53:52;;;;;;;6.97;3.52;;;;;;;;;;1692682;83;21697;-76
2022/10/11 06:56:18;;;;;;;4.30;2.83;;;;;;;;;;1662597;84;21108;-75
2022/10/11 06:58:45;;;;;;;6.08;3.40;;;;;;;;;;1665510;84;21108;-76
2022/10/11 07:01:11;;;;;;;7.92;3.55;;;;;;;;;;1688486;83;21040;-76
2022/10/11 07:03:37;;;;;;;5.10;2.80;;;;;;;;;;1697613;83;22587;-76
2022/10/11 07:06:05;;;;;;;6.25;3.20;;;;;;;;;;1689655;83;22199;-77
2022/10/11 07:08:32;;;;;;;5.58;2.77;;;;;;;;;;1667779;84;21103;-77
2022/10/11 07:11:03;;;;;;;5.08;2.42;;;;;;;;;;1689612;83;21056;-77
2022/10/11 07:13:29;;;;;;;4.08;2.65;;;;;;;;;;1694194;83;22173;-76
2022/10/11 07:15:58;;;;;;;6.25;2.50;;;;;;;;;;1689678;83;21032;-75
2022/10/11 07:18:25;;;;;;;4.65;2.52;;;;;;;;;;1694340;83;21102;-75
2022/10/11 07:20:51;;;;;;;5.75;2.70;;;;;;;;;;1692871;83;21040;-75
2022/10/11 07:23:17;;;;;;;5.35;2.70;;;;;;;;;;1671834;84;21041;-77
2022/10/11 07:25:44;;;;;;;14.98;3.70;;;;;;;;;;1690324;83;21008;-80
2022/10/11 07:28:10;;;;;;;8.50;2.70;;;;;;;;;;1692794;83;21200;-78
2022/10/11 07:30:37;;;;;;;3.83;2.55;;;;;;;;;;1693991;84;21057;-78
2022/10/11 07:33:04;;;;;;;5.42;3.00;;;;;;;;;;1693547;84;21268;-77
2022/10/11 07:35:32;;;;;;;4.25;2.70;;;;;;;;;;1693554;83;21039;-79
2022/10/11 07:37:59;;;;;;;4.70;2.55;;;;;;;;;;1696017;83;21064;-78
2022/10/11 07:40:25;;;;;;;3.77;2.40;;;;;;;;;;1693959;84;21029;-85
2022/10/11 07:42:51;;;;;;;4.28;2.47;;;;;;;;;;1692524;83;21008;-82
2022/10/11 07:45:18;;;;;;;4.72;2.33;;;;;;;;;;1696204;83;21075;-86
2022/10/11 07:47:45;;;;;;;7.72;3.08;;;;;;;;;;1694639;83;21024;-80
2022/10/11 07:50:12;;;;;;;4.85;2.90;;;;;;;;;;1693393;83;21016;-81
2022/10/11 07:52:38;;;;;;;4.60;2.80;;;;;;;;;;1697389;83;21067;-81
2022/10/11 07:55:04;;;;;;;4.42;2.60;;;;;;;;;;1693813;83;21094;-78
2022/10/11 07:57:31;;;;;;;4.05;2.17;;;;;;;;;;1694942;83;21037;-79
2022/10/11 07:59:57;;;;;;;3.90;2.58;;;;;;;;;;1693297;83;20989;-77
2022/10/11 08:02:23;;;;;;;4.92;2.35;;;;;;;;;;1688077;83;21579;-77
2022/10/11 08:04:49;;;;;;;5.25;2.10;;;;;;;;;;1693872;83;21114;-74
2022/10/11 08:07:16;;;;;;;3.10;1.92;;;;;;;;;;1699117;84;21055;-82
2022/10/11 08:09:42;;;;;;;2.15;1.75;;;;;;;;;;1695431;83;21067;-74
2022/10/11 08:12:08;;;;;;;2.00;1.75;;;;;;;;;;1695985;83;21515;-76
2022/10/11 08:14:35;;;;;;;3.17;1.80;;;;;;;;;;1694293;83;21027;-75
2022/10/11 08:17:01;;;;;;;3.15;2.12;;;;;;;;;;1697797;83;22249;-78
2022/10/11 08:19:28;;;;;;;3.90;2.55;;;;;;;;;;1698142;83;21027;-80
2022/10/11 08:21:55;;;;;;;3.30;2.58;;;;;;;;;;1700587;84;21086;-75
2022/10/11 08:24:23;;;;;;;4.37;2.77;;;;;;;;;;1700199;83;20992;-76
2022/10/11 08:26:49;;;;;;;3.40;2.20;;;;;;;;;;1707642;83;21581;-78
2022/10/11 08:29:15;;;;;;;2.75;2.10;;;;;;;;;;1699953;83;21031;-80
2022/10/11 08:31:43;;;;;;;3.50;2.10;;;;;;;;;;1700166;83;20988;-77
2022/10/11 08:34:10;;;;;;;3.75;2.22;;;;;;;;;;1690484;83;21027;-81
2022/10/11 08:36:36;;;;;;;3.85;1.98;;;;;;;;;;1697802;83;21062;-81
2022/10/11 08:39:03;;;;;;;4.75;1.90;;;;;;;;;;1697305;83;21035;-80
2022/10/11 08:41:41;;;;;;;9.13;4.95;;;;;;;;;;1693954;83;21054;-81
2022/10/11 08:44:12;;;;;;;4.87;2.85;;;;;;;;;;1698162;83;21071;-80
2022/10/11 08:46:39;;;;;;;3.72;2.42;;;;;;;;;;1700762;84;21053;-84
2022/10/11 08:49:05;;;;;;;3.30;2.30;;;;;;;;;;1693203;83;21501;-88
2022/10/11 08:51:36;;;;;;;3.80;2.20;;;;;;;;;;1694580;83;21018;-74
2022/10/11 08:54:06;;;;;;;4.92;1.95;;;;;;;;;;1692193;84;21030;-80
2022/10/11 08:56:34;;;;;;;2.45;1.80;;;;;;;;;;1701653;83;21542;-79
2022/10/11 08:59:04;;;;;;;4.03;2.27;;;;;;;;;;1694109;83;21087;-82
2022/10/11 09:01:31;;;;;;;5.10;2.35;;;;;;;;;;1701583;83;21144;-79
2022/10/11 09:04:01;;;;;;;3.42;1.85;;;;;;;;;;1698092;83;21015;-81
2022/10/11 09:06:36;;;;;;;3.58;1.90;;;;;;;;;;1708193;82;21472;-81
2022/10/11 09:09:21;;;;;;;2.95;2.20;;;;;;;;;;1723039;82;21197;-81
2022/10/11 09:11:49;;;;;;;3.83;2.35;;;;;;;;;;1721861;83;21081;-79
2022/10/11 09:14:17;;;;;;;4.70;2.50;;;;;;;;;;1693616;84;21002;-78
2022/10/11 09:16:49;;;;;;;5.67;2.42;;;;;;;;;;1693515;84;21599;-78
2022/10/11 09:19:24;;;;;;;3.58;2.08;;;;;;;;;;1699826;83;21073;-77
2022/10/11 09:21:52;;;;;;;2.10;1.85;;;;;;;;;;1703211;84;21089;-79
2022/10/11 09:24:30;;;;;;;4.17;2.10;;;;;;;;;;1700231;84;21102;-74
2022/10/11 09:26:58;;;;;;;3.77;2.30;;;;;;;;;;1686148;83;21042;-81
2022/10/11 09:29:44;;;;;;;4.75;2.30;;;;;;;;;;1699662;83;21111;-85
2022/10/11 09:32:12;;;;;;;3.17;2.15;;;;;;;;;;1693804;83;21055;-81
2022/10/11 09:34:39;;;;;;;3.55;2.05;;;;;;;;;;1698029;84;21087;-84
2022/10/11 09:37:19;;;;;;;2.22;1.70;;;;;;;;;;1700163;84;21069;-81
2022/10/11 09:39:47;;;;;;;2.62;1.80;;;;;;;;;;1634755;84;21079;-80
2022/10/11 09:42:14;;;;;;;3.37;1.60;;;;;;;;;;1691707;84;21033;-78
2022/10/11 09:44:47;;;;;;;2.42;1.70;;;;;;;;;;1689368;84;21111;-83
2022/10/11 09:47:13;;;;;;;;;;;;;;;;;;1700218;83;21026;-80
2022/10/11 09:49:41;;;;;;;4.08;2.02;;;;;;;;;;1695031;84;20162;-78
2022/10/11 09:52:12;;;;;;;4.00;1.80;;;;;;;;;;1703175;83;21034;-79
2022/10/11 09:57:47;;;;;;;2.77;1.50;;;;;;;;;;1794453;79;23521;-73
2022/10/11 10:00:24;;;;;;;11.05;6.65;;;;;;;;;;1765951;80;21040;-72
2022/10/11 10:02:52;;;;;;;3.42;2.25;;;;;;;;;;1737975;80;21072;-72
2022/10/11 10:05:19;;;;;;;2.25;1.60;;;;;;;;;;1673798;85;21071;-72
2022/10/11 10:07:57;;;;;;;2.02;1.55;;;;;;;;;;1686283;84;20992;-71
2022/10/11 10:10:28;;;;;;;3.15;1.80;;;;;;;;;;1655161;84;21040;-71
2022/10/11 10:12:54;;;;;;;2.92;1.85;;;;;;;;;;1690475;84;21500;-71
2022/10/11 10:15:21;;;;;;;2.20;1.60;;;;;;;;;;1690417;85;21107;-72
2022/10/11 10:17:48;;;;;;;4.08;2.10;;;;;;;;;;1693005;83;21084;-72
2022/10/11 10:20:19;;;;;;;3.33;2.10;;;;;;;;;;1694138;83;21099;-71
2022/10/11 10:22:46;;;;;;;3.67;2.17;;;;;;;;;;1695817;84;21435;-70
2022/10/11 10:25:14;;;;;;;7.22;2.40;;;;;;;;;;1695867;83;21059;-73
2022/10/11 10:27:40;;;;;;;3.10;2.00;;;;;;;;;;1696682;84;21052;-73
2022/10/11 10:30:09;;;;;;;2.95;2.10;;;;;;;;;;1655465;84;21547;-70
2022/10/11 10:32:43;;;;;;;3.58;2.10;;;;;;;;;;1704813;82;21095;-71
2022/10/11 10:35:14;;;;;;;3.17;2.10;;;;;;;;;;1703779;82;21065;-70
2022/10/11 10:37:51;;;;;;;3.10;2.20;;;;;;;;;;1701125;84;21112;-70
2022/10/11 10:40:19;;;;;;;3.27;2.02;;;;;;;;;;1690603;84;21052;-73
2022/10/11 10:42:45;;;;;;;3.75;2.27;;;;;;;;;;1692558;84;21123;-77
2022/10/11 10:45:15;;;;;;;4.83;2.08;;;;;;;;;;1703278;84;21008;-76
2022/10/11 10:47:42;;;;;;;5.45;2.22;;;;;;;;;;1678460;85;21096;-79
2022/10/11 10:50:20;;;;;;;4.03;2.58;;;;;;;;;;1679956;84;21056;-80
2022/10/11 10:52:51;;;;;;;3.62;2.25;;;;;;;;;;1698813;84;21088;-75
2022/10/11 10:55:35;;;;;;;3.58;2.30;;;;;;;;;;1696023;84;21096;-76
2022/10/11 10:58:09;;;;;;;3.67;2.30;;;;;;;;;;1665868;86;21048;-74
2022/10/11 11:00:38;;;;;;;6.10;2.22;;;;;;;;;;1667450;86;21059;-75
2022/10/11 11:03:05;;;;;;;2.87;2.20;;;;;;;;;;1660325;86;21130;-75
2022/10/11 11:05:36;;;;;;;4.75;2.52;;;;;;;;;;1677601;84;21745;-75
2022/10/11 11:08:07;;;;;;;3.35;2.40;;;;;;;;;;1693628;84;21029;-74
2022/10/11 11:10:38;;;;;;;3.27;2.30;;;;;;;;;;1691930;84;21030;-74
2022/10/11 11:13:10;;;;;;;4.00;2.62;;;;;;;;;;1689917;84;21062;-77
2022/10/11 11:15:39;;;;;;;3.60;2.50;;;;;;;;;;1696037;84;21060;-77
2022/10/11 11:18:08;;;;;;;5.00;2.40;;;;;;;;;;1698401;83;21054;-78
2022/10/11 11:20:48;;;;;;;4.37;2.70;;;;;;;;;;1697416;84;21023;-76
2022/10/11 11:23:22;;;;;;;6.67;2.50;;;;;;;;;;1699894;83;21031;-77
2022/10/11 11:25:50;;;;;;;3.50;2.42;;;;;;;;;;1686182;84;21509;-75
2022/10/11 11:28:27;;;;;;;4.00;2.30;;;;;;;;;;1687028;84;21033;-75
2022/10/11 11:31:01;;;;;;;6.00;2.80;;;;;;;;;;1689481;84;21047;-74
2022/10/11 11:33:35;;;;;;;45.70;5.72;;;;;;;;;;1689434;83;21589;-75
2022/10/11 11:36:02;;;;;;;3.98;2.10;;;;;;;;;;1725038;83;21077;-78
2022/10/11 11:38:42;;;;;;;1.87;1.60;;;;;;;;;;1697561;83;20999;-78
2022/10/11 11:41:16;;;;;;;3.70;2.30;;;;;;;;;;1694299;84;21062;-75
2022/10/11 11:44:01;;;;;;;3.00;1.80;;;;;;;;;;1676991;84;21103;-74
2022/10/11 11:46:35;;;;;;;3.60;1.80;;;;;;;;;;1672209;84;21011;-75
2022/10/11 11:49:02;;;;;;;3.87;2.10;;;;;;;;;;1690851;83;22308;-74
2022/10/11 11:51:30;;;;;;;2.55;1.60;;;;;;;;;;1685174;84;21089;-73
2022/10/11 11:54:15;;;;;;;2.67;1.65;;;;;;;;;;1688614;84;21114;-72
2022/10/11 11:56:46;;;;;;;1.72;1.57;;;;;;;;;;1695596;83;21104;-71
2022/10/11 11:59:15;;;;;;;3.22;1.60;;;;;;;;;;1688438;82;21091;-71
2022/10/11 12:01:43;;;;;;;2.65;2.05;;;;;;;;;;1680787;84;21114;-70
2022/10/11 12:04:28;;;;;;;2.20;1.65;;;;;;;;;;1691000;83;21076;-71
2022/10/11 12:07:08;;;;;;;3.27;2.08;;;;;;;;;;1690443;84;21091;-71
2022/10/11 12:09:34;;;;;;;2.70;1.90;;;;;;;;;;1693329;82;21137;-73
2022/10/11 12:12:02;;;;;;;3.02;2.00;;;;;;;;;;1690890;82;21543;-72
2022/10/11 12:14:33;;;;;;;3.12;1.95;;;;;;;;;;1690143;84;21527;-73
2022/10/11 12:17:10;;;;;;;3.95;2.10;;;;;;;;;;1688447;83;21144;-72
2022/10/11 12:19:36;;;;;;;4.30;2.22;;;;;;;;;;1695319;84;21129;-72
2022/10/11 12:22:21;;;;;;;3.20;2.05;;;;;;;;;;1697280;84;21019;-73
2022/10/11 12:24:54;;;;;;;3.72;2.27;;;;;;;;;;1700140;84;21032;-73
2022/10/11 12:27:28;;;;;;;3.25;2.20;;;;;;;;;;1690887;84;21000;-73
2022/10/11 12:29:53;;;;;;;;;;;;;;;;;;1702875;84;21007;-73
2022/10/11 12:32:27;;;;;;;2.60;1.70;;;;;;;;;;1698030;84;20186;-72
2022/10/11 12:35:12;;;;;;;2.62;1.90;;;;;;;;;;1700639;82;21571;-72
2022/10/11 12:37:40;;;;;;;5.10;2.87;;;;;;;;;;1695125;83;21052;-72
2022/10/11 12:40:08;;;;;;;2.98;1.98;;;;;;;;;;1703213;82;21024;-73
2022/10/11 12:42:34;;;;;;;6.67;2.22;;;;;;;;;;1697134;82;21024;-72
2022/10/11 12:45:11;;;;;;;3.08;2.00;;;;;;;;;;1665140;84;21039;-72
2022/10/11 12:47:45;;;;;;;2.77;2.00;;;;;;;;;;1692452;84;21020;-73
2022/10/11 12:50:16;;;;;;;3.17;1.72;;;;;;;;;;1685806;82;21453;-72
2022/10/11 12:53:01;;;;;;;3.33;1.77;;;;;;;;;;1705171;82;21514;-72
2022/10/11 12:55:34;;;;;;;3.67;1.87;;;;;;;;;;1692657;84;21293;-74
2022/10/11 12:58:04;;;;;;;2.35;1.77;;;;;;;;;;1721425;82;21090;-71
2022/10/11 13:00:32;;;;;;;4.00;2.10;;;;;;;;;;1728931;82;21021;-70
2022/10/11 13:03:00;;;;;;;3.17;2.17;;;;;;;;;;1731821;82;21064;-71
2022/10/11 13:05:27;;;;;;;4.17;2.17;;;;;;;;;;1714970;82;20963;-71
2022/10/11 13:07:54;;;;;;;3.00;1.95;;;;;;;;;;1735619;82;20932;-70
2022/10/11 13:10:23;;;;;;;3.70;2.00;;;;;;;;;;1734033;82;21076;-70
2022/10/11 13:12:49;;;;;;;2.42;1.75;;;;;;;;;;1738079;82;21524;-73
2022/10/11 13:15:16;;;;;;;3.50;2.17;;;;;;;;;;1745951;82;21000;-73
2022/10/11 13:17:42;;;;;;;3.40;2.42;;;;;;;;;;1723696;82;21052;-73
2022/10/11 13:20:17;;;;;;;4.85;3.20;;;;;;;;;;1733542;82;21623;-71
2022/10/11 13:22:46;;;;;;;5.37;3.05;;;;;;;;;;1738966;82;21081;-71
2022/10/11 13:25:17;;;;;;;2.87;1.70;;;;;;;;;;1736120;82;21020;-72
2022/10/11 13:27:43;;;;;;;2.42;1.80;;;;;;;;;;1723414;81;21044;-73
2022/10/11 13:30:11;;;;;;;3.27;1.80;;;;;;;;;;1722262;82;21056;-72
2022/10/11 13:32:38;;;;;;;2.85;1.90;;;;;;;;;;1728483;80;21512;-71
2022/10/11 13:35:05;;;;;;;3.62;2.00;;;;;;;;;;1736788;80;21178;-72
2022/10/11 13:37:33;;;;;;;3.20;1.98;;;;;;;;;;1740205;80;21005;-71
2022/10/11 13:39:59;;;;;;;3.72;2.22;;;;;;;;;;1740630;80;21579;-73
2022/10/11 13:42:29;;;;;;;3.30;1.55;;;;;;;;;;1741109;80;21014;-71
2022/10/11 13:44:55;;;;;;;1.52;1.42;;;;;;;;;;1735374;80;21421;-71
2022/10/11 13:47:23;;;;;;;3.20;1.90;;;;;;;;;;1705364;80;21028;-72
2022/10/11 13:50:01;;;;;;;2.25;1.55;;;;;;;;;;1735951;80;21013;-70
2022/10/11 13:52:28;;;;;;;4.75;2.00;;;;;;;;;;1738973;80;21069;-71
2022/10/11 13:54:57;;;;;;;3.92;2.37;;;;;;;;;;1735248;80;21032;-71
2022/10/11 13:57:26;;;;;;;6.78;4.60;;;;;;;;;;1732518;80;21075;-72
2022/10/11 13:59:52;;;;;;;5.97;2.70;;;;;;;;;;1728916;80;21359;-73
2022/10/11 14:02:19;;;;;;;2.83;2.00;;;;;;;;;;1737440;81;21744;-72
2022/10/11 14:04:47;;;;;;;5.37;2.40;;;;;;;;;;1733481;82;21033;-71
2022/10/11 14:07:32;;;;;;;4.65;2.00;;;;;;;;;;1731338;82;21037;-72
2022/10/11 14:09:59;;;;;;;2.85;1.70;;;;;;;;;;1728878;82;21017;-72
2022/10/11 14:12:30;;;;;;;4.55;1.80;;;;;;;;;;1739169;82;21081;-72
2022/10/11 14:14:57;;;;;;;6.80;2.30;;;;;;;;;;1739186;82;21138;-71
2022/10/11 14:17:40;;;;;;;4.40;1.90;;;;;;;;;;1738949;82;21128;-72
2022/10/11 14:20:14;;;;;;;3.05;1.90;;;;;;;;;;1735975;82;21016;-72
2022/10/11 14:22:42;;;;;;;3.52;2.30;;;;;;;;;;1729374;82;21021;-72
2022/10/11 14:25:08;;;;;;;7.00;2.20;;;;;;;;;;1720865;82;21627;-72
2022/10/11 14:27:34;;;;;;;15.18;2.58;;;;;;;;;;1737463;82;21038;-71
2022/10/11 14:30:00;;;;;;;4.25;2.10;;;;;;;;;;1718413;82;21005;-71
2022/10/11 14:32:28;;;;;;;4.72;2.20;;;;;;;;;;1724651;82;20977;-71
2022/10/11 14:34:54;;;;;;;4.50;2.20;;;;;;;;;;1718130;82;21013;-72
2022/10/11 14:37:24;;;;;;;7.58;2.30;;;;;;;;;;1711349;82;21037;-72
2022/10/11 14:39:51;;;;;;;5.15;2.75;;;;;;;;;;1738789;82;21109;-73
2022/10/11 14:42:17;;;;;;;10.13;3.12;;;;;;;;;;1739285;82;21025;-72
2022/10/11 14:44:43;;;;;;;8.60;3.12;;;;;;;;;;1730248;81;21021;-73
2022/10/11 14:47:10;;;;;;;21.97;3.05;;;;;;;;;;1723069;82;21013;-73
2022/10/11 14:49:36;;;;;;;23.15;3.37;;;;;;;;;;1723990;82;21003;-73
2022/10/11 14:52:03;;;;;;;16.87;2.87;;;;;;;;;;1738021;82;21022;-73